Time;durP1;ratioP1;P1;durP2;ratioP2;P2;SDS_P1;SDS_P2;PMS_P1;PMS_P2;Temp;Humidity;BMP_temperature;BMP_pressure;BME280_temperature;BME280_humidity;BME280_pressure;Samples;Min_cycle;Max_cycle;Signal;HPM_P1;HPM_P2
2023/08/17 00:00:41;;;;;;;5.63;3.38;;;;;;;18.83;nan;101902.00;5021634;28;20025;-73
2023/08/17 00:03:06;;;;;;;3.75;3.15;;;;;;;18.78;nan;101909.28;5023009;28;20063;-72
2023/08/17 00:05:32;;;;;;;5.53;3.05;;;;;;;18.76;nan;101903.19;5020492;28;20053;-72
2023/08/17 00:08:00;;;;;;;5.78;3.20;;;;;;;18.71;nan;101907.78;5019876;28;20044;-73
2023/08/17 00:10:26;;;;;;;4.78;3.40;;;;;;;18.65;nan;101894.81;5022700;28;20353;-75
2023/08/17 00:12:51;;;;;;;4.90;3.13;;;;;;;18.64;nan;101901.91;5021029;28;20026;-75
2023/08/17 00:15:16;;;;;;;6.07;3.10;;;;;;;18.49;nan;101890.16;5021213;28;20091;-75
2023/08/17 00:17:42;;;;;;;4.22;3.20;;;;;;;18.57;nan;101910.09;5022898;28;20104;-75
2023/08/17 00:20:09;;;;;;;8.30;3.53;;;;;;;18.39;nan;101888.81;5019413;28;20040;-75
2023/08/17 00:22:35;;;;;;;4.60;2.95;;;;;;;18.43;nan;101890.41;5022784;28;20037;-75
2023/08/17 00:25:00;;;;;;;5.97;3.17;;;;;;;18.45;nan;101901.75;5022757;28;20022;-75
2023/08/17 00:27:26;;;;;;;4.90;2.97;;;;;;;18.42;nan;101896.59;5024303;28;20068;-75
2023/08/17 00:29:51;;;;;;;5.97;3.03;;;;;;;18.40;nan;101893.16;5026020;28;20381;-75
2023/08/17 00:32:16;;;;;;;6.65;3.70;;;;;;;18.41;nan;101902.81;5020228;28;20030;-75
2023/08/17 00:34:41;;;;;;;5.32;3.28;;;;;;;18.42;nan;101893.97;5025391;28;20037;-75
2023/08/17 00:37:07;;;;;;;5.82;3.00;;;;;;;18.41;nan;101894.00;5024934;28;20477;-75
2023/08/17 00:39:32;;;;;;;5.50;3.00;;;;;;;18.35;nan;101887.22;5025419;28;20026;-75
2023/08/17 00:41:57;;;;;;;4.68;3.20;;;;;;;18.36;nan;101896.84;5023992;28;20370;-75
2023/08/17 00:44:23;;;;;;;5.35;3.17;;;;;;;18.34;nan;101895.19;5022722;28;20033;-75
2023/08/17 00:46:48;;;;;;;6.05;3.45;;;;;;;18.20;nan;101886.00;5028723;28;20030;-75
2023/08/17 00:49:13;;;;;;;5.20;3.22;;;;;;;18.27;nan;101897.19;5022069;28;20532;-75
2023/08/17 00:51:39;;;;;;;4.22;3.10;;;;;;;18.27;nan;101907.75;5024151;28;20092;-75
2023/08/17 00:54:04;;;;;;;6.57;3.40;;;;;;;18.22;nan;101900.03;5024713;28;20084;-75
2023/08/17 00:56:30;;;;;;;4.63;3.20;;;;;;;18.22;nan;101901.81;5029674;28;20378;-75
2023/08/17 00:58:55;;;;;;;6.10;3.15;;;;;;;18.17;nan;101901.13;5022681;28;20466;-75
2023/08/17 01:01:22;;;;;;;7.93;3.15;;;;;;;18.17;nan;101901.13;5022347;28;20030;-75
2023/08/17 01:03:47;;;;;;;5.45;2.85;;;;;;;18.19;nan;101902.78;5027648;28;20049;-75
2023/08/17 01:06:12;;;;;;;5.90;3.05;;;;;;;18.21;nan;101905.34;5021647;28;20057;-75
2023/08/17 01:08:39;;;;;;;9.10;3.42;;;;;;;18.22;nan;101913.22;5021744;28;20030;-75
2023/08/17 01:11:21;;;;;;;4.70;2.65;;;;;;;18.24;nan;101916.63;5028701;28;20038;-76
2023/08/17 01:13:53;;;;;;;6.13;3.10;;;;;;;18.15;nan;101908.25;5021938;28;20033;-75
2023/08/17 01:16:26;;;;;;;7.25;2.95;;;;;;;18.14;nan;101906.50;5014974;28;20343;-76
2023/08/17 01:18:52;;;;;;;;;;;;;;;18.16;nan;101907.31;5018313;28;20025;-76
2023/08/17 01:21:20;;;;;;;7.97;2.80;;;;;;;18.02;nan;101911.34;5021366;28;20385;-76
2023/08/17 01:23:48;;;;;;;3.58;2.65;;;;;;;17.94;nan;101896.72;5019148;28;20028;-75
2023/08/17 01:26:15;;;;;;;5.22;2.90;;;;;;;17.93;nan;101901.13;5023017;28;20048;-75
2023/08/17 01:28:42;;;;;;;7.53;3.00;;;;;;;17.84;nan;101888.28;5022156;28;20028;-75
2023/08/17 01:31:17;;;;;;;4.93;2.60;;;;;;;17.84;nan;101896.19;5027906;28;20059;-75
2023/08/17 01:33:49;;;;;;;6.63;3.33;;;;;;;17.87;nan;101901.34;5021057;28;20054;-75
2023/08/17 01:36:36;;;;;;;5.47;3.10;;;;;;;17.83;nan;101897.13;5026642;28;20033;-75
2023/08/17 01:39:04;;;;;;;5.07;3.28;;;;;;;17.80;nan;101896.38;5021552;28;20105;-75
2023/08/17 01:41:31;;;;;;;4.68;3.00;;;;;;;17.75;nan;101896.50;5028544;28;20104;-75
2023/08/17 01:43:59;;;;;;;5.95;3.30;;;;;;;17.74;nan;101889.50;5019681;28;20058;-75
2023/08/17 01:46:28;;;;;;;4.40;3.13;;;;;;;17.73;nan;101886.00;5012724;28;20084;-75
2023/08/17 01:48:53;;;;;;;6.72;3.05;;;;;;;17.68;nan;101880.03;5027760;28;20029;-75
2023/08/17 01:51:19;;;;;;;5.70;3.40;;;;;;;17.72;nan;101886.06;5017741;28;20021;-75
2023/08/17 01:53:45;;;;;;;5.35;3.20;;;;;;;17.71;nan;101884.34;5023041;28;20080;-75
2023/08/17 01:56:11;;;;;;;5.10;3.45;;;;;;;17.73;nan;101877.25;5025381;28;20033;-75
2023/08/17 01:58:36;;;;;;;7.15;3.85;;;;;;;17.70;nan;101872.94;5022700;28;20028;-75
2023/08/17 02:01:01;;;;;;;7.35;3.35;;;;;;;17.69;nan;101872.97;5024555;28;20030;-75
2023/08/17 02:03:28;;;;;;;5.35;3.22;;;;;;;17.67;nan;101874.84;5023706;28;20041;-73
2023/08/17 02:05:55;;;;;;;5.28;3.28;;;;;;;17.72;nan;101875.50;5022384;28;20030;-73
2023/08/17 02:08:21;;;;;;;6.07;3.40;;;;;;;17.68;nan;101877.41;5024030;28;20087;-73
2023/08/17 02:10:46;;;;;;;6.10;3.40;;;;;;;17.74;nan;101889.50;5020876;28;20065;-73
2023/08/17 02:13:12;;;;;;;5.78;3.20;;;;;;;17.71;nan;101894.88;5028245;28;20036;-73
2023/08/17 02:15:40;;;;;;;6.75;3.58;;;;;;;17.73;nan;101893.94;5016983;28;20109;-73
2023/08/17 02:18:06;;;;;;;6.20;3.20;;;;;;;17.72;nan;101892.22;5021801;28;20029;-73
2023/08/17 02:20:31;;;;;;;10.90;3.25;;;;;;;17.64;nan;101882.84;5023915;28;20029;-73
2023/08/17 02:22:57;;;;;;;7.25;3.42;;;;;;;17.69;nan;101896.72;5021955;28;20354;-73
2023/08/17 02:25:22;;;;;;;6.82;3.20;;;;;;;17.66;nan;101902.13;5020021;28;20523;-73
2023/08/17 02:27:47;;;;;;;6.65;3.40;;;;;;;17.65;nan;101900.38;5019476;28;20037;-73
2023/08/17 02:30:13;;;;;;;8.40;3.30;;;;;;;17.59;nan;101897.97;5021709;28;20034;-73
2023/08/17 02:32:39;;;;;;;6.10;3.40;;;;;;;17.59;nan;101893.53;5023681;28;20513;-73
2023/08/17 02:35:04;;;;;;;9.88;3.38;;;;;;;17.62;nan;101890.81;5021840;28;20080;-73
2023/08/17 02:37:30;;;;;;;4.70;3.63;;;;;;;17.65;nan;101892.47;5018060;28;20476;-73
2023/08/17 02:39:55;;;;;;;8.77;3.53;;;;;;;17.67;nan;101893.28;5020492;28;20033;-73
2023/08/17 02:42:21;;;;;;;6.15;3.03;;;;;;;17.51;nan;101861.34;5020787;28;20036;-73
2023/08/17 02:44:46;;;;;;;7.18;3.35;;;;;;;17.61;nan;101877.69;5026251;28;20022;-73
2023/08/17 02:47:12;;;;;;;7.47;3.58;;;;;;;17.62;nan;101893.44;5016448;28;20534;-73
2023/08/17 02:49:37;;;;;;;8.65;3.15;;;;;;;17.64;nan;101877.56;5027335;28;20030;-73
2023/08/17 02:52:02;;;;;;;7.03;3.25;;;;;;;17.61;nan;101877.69;5020725;28;20033;-73
2023/08/17 02:54:28;;;;;;;6.22;2.72;;;;;;;17.65;nan;101885.41;5026151;28;20025;-73
2023/08/17 02:56:53;;;;;;;6.43;3.10;;;;;;;17.63;nan;101892.53;5020480;28;20270;-73
2023/08/17 02:59:18;;;;;;;5.70;2.90;;;;;;;17.56;nan;101872.59;5026226;28;20496;-73
2023/08/17 03:01:45;;;;;;;4.47;2.72;;;;;;;17.62;nan;101877.63;5021051;28;20120;-74
2023/08/17 03:04:10;;;;;;;4.72;2.65;;;;;;;17.62;nan;101874.13;5019610;28;20109;-73
2023/08/17 03:06:36;;;;;;;7.18;3.63;;;;;;;17.63;nan;101884.63;5024979;28;20184;-74
2023/08/17 03:09:01;;;;;;;4.68;2.80;;;;;;;17.63;nan;101873.22;5019103;28;20613;-74
2023/08/17 03:11:27;;;;;;;4.63;2.97;;;;;;;17.62;nan;101874.13;5023537;28;20439;-73
2023/08/17 03:13:55;;;;;;;6.93;3.30;;;;;;;17.59;nan;101868.97;5022165;28;20034;-73
2023/08/17 03:16:20;;;;;;;6.43;2.83;;;;;;;17.58;nan;101872.53;5019023;28;20040;-73
2023/08/17 03:18:47;;;;;;;6.55;2.80;;;;;;;17.58;nan;101872.53;5019988;28;20025;-74
2023/08/17 03:21:13;;;;;;;7.60;2.75;;;;;;;17.59;nan;101874.22;5020028;28;20474;-73
2023/08/17 03:23:38;;;;;;;6.60;2.80;;;;;;;17.59;nan;101871.59;5016522;28;20030;-73
2023/08/17 03:26:03;;;;;;;4.25;2.70;;;;;;;17.48;nan;101851.75;5018801;28;20081;-73
2023/08/17 03:28:29;;;;;;;7.07;2.90;;;;;;;17.60;nan;101868.06;5016404;28;20473;-73
2023/08/17 03:30:55;;;;;;;8.07;3.13;;;;;;;17.58;nan;101878.66;5022305;28;20129;-73
2023/08/17 03:33:21;;;;;;;6.78;3.00;;;;;;;17.55;nan;101882.25;5021377;28;20572;-73
2023/08/17 03:35:46;;;;;;;6.28;2.72;;;;;;;17.50;nan;101872.81;5021723;28;20132;-73
2023/08/17 03:38:11;;;;;;;4.18;2.58;;;;;;;17.46;nan;101866.78;5019586;28;20030;-73
2023/08/17 03:40:37;;;;;;;10.07;3.45;;;;;;;17.46;nan;101865.91;5023291;28;20025;-73
2023/08/17 03:43:02;;;;;;;7.90;2.65;;;;;;;17.44;nan;101865.97;5021898;28;20363;-73
2023/08/17 03:45:29;;;;;;;4.15;2.55;;;;;;;17.41;nan;101863.44;5020670;28;20033;-73
2023/08/17 03:47:54;;;;;;;6.57;2.90;;;;;;;17.43;nan;101866.91;5024753;28;20045;-73
2023/08/17 03:50:19;;;;;;;6.45;2.53;;;;;;;17.48;nan;101864.09;5017705;28;20375;-73
2023/08/17 03:52:45;;;;;;;7.05;2.47;;;;;;;17.47;nan;101876.41;5026557;28;20068;-74
2023/08/17 03:55:10;;;;;;;5.35;2.80;;;;;;;17.43;nan;101869.53;5019017;28;20066;-73
2023/08/17 03:57:35;;;;;;;5.50;2.80;;;;;;;17.37;nan;101866.25;5020308;28;20065;-74
2023/08/17 04:00:01;;;;;;;5.88;3.00;;;;;;;17.40;nan;101880.19;5027922;28;20025;-73
2023/08/17 04:02:26;;;;;;;5.10;2.63;;;;;;;17.31;nan;101862.06;5022839;28;20041;-73
2023/08/17 04:04:51;;;;;;;5.20;3.15;;;;;;;17.33;nan;101876.06;5030419;28;20033;-73
2023/08/17 04:07:23;;;;;;;6.80;3.60;;;;;;;17.37;nan;101888.19;5022584;28;20128;-73
2023/08/17 04:09:49;;;;;;;7.15;3.58;;;;;;;17.37;nan;101890.84;5018268;28;20401;-73
2023/08/17 04:12:14;;;;;;;6.18;3.65;;;;;;;17.40;nan;101896.00;5021885;28;20033;-73
2023/08/17 04:14:40;;;;;;;5.28;3.05;;;;;;;17.37;nan;101900.53;5014606;28;20058;-73
2023/08/17 04:17:05;;;;;;;3.55;2.90;;;;;;;17.36;nan;101894.38;5021170;28;20093;-73
2023/08/17 04:19:30;;;;;;;6.05;3.40;;;;;;;17.31;nan;101896.31;5019587;28;20080;-73
2023/08/17 04:21:55;;;;;;;4.65;3.22;;;;;;;17.27;nan;101892.94;5029035;28;20029;-73
2023/08/17 04:24:21;;;;;;;4.78;3.00;;;;;;;17.27;nan;101902.63;5022245;28;20017;-73
2023/08/17 04:26:46;;;;;;;5.95;3.28;;;;;;;17.22;nan;101897.50;5026950;28;20049;-73
2023/08/17 04:29:11;;;;;;;4.38;3.35;;;;;;;17.20;nan;101899.34;5019349;28;20113;-73
2023/08/17 04:31:37;;;;;;;6.07;3.40;;;;;;;17.20;nan;101908.97;5025711;28;20025;-73
2023/08/17 04:34:02;;;;;;;5.38;3.10;;;;;;;17.21;nan;101913.38;5025131;28;20037;-73
2023/08/17 04:36:28;;;;;;;5.63;3.63;;;;;;;17.17;nan;101904.72;5023751;28;20041;-73
2023/08/17 04:38:53;;;;;;;7.65;3.38;;;;;;;17.11;nan;101904.06;5020441;28;20049;-73
2023/08/17 04:41:18;;;;;;;7.03;3.28;;;;;;;17.13;nan;101902.22;5022370;28;20030;-72
2023/08/17 04:43:46;;;;;;;7.97;3.22;;;;;;;17.12;nan;101903.13;5026751;28;20061;-73
2023/08/17 04:46:11;;;;;;;9.60;3.88;;;;;;;17.05;nan;101891.94;5022775;28;20026;-73
2023/08/17 04:48:37;;;;;;;6.20;3.80;;;;;;;17.01;nan;101893.81;5020309;28;20017;-73
2023/08/17 04:51:02;;;;;;;10.50;4.10;;;;;;;17.02;nan;101894.69;5024371;28;20489;-73
2023/08/17 04:53:27;;;;;;;6.20;3.45;;;;;;;17.00;nan;101902.66;5022877;28;20057;-73
2023/08/17 04:55:53;;;;;;;9.88;3.47;;;;;;;16.96;nan;101889.59;5025868;28;20056;-73
2023/08/17 04:58:18;;;;;;;6.47;3.80;;;;;;;16.95;nan;101888.75;5023463;28;20124;-73
2023/08/17 05:00:44;;;;;;;6.30;3.80;;;;;;;16.96;nan;101906.28;5023863;28;20026;-73
2023/08/17 05:03:09;;;;;;;8.80;3.10;;;;;;;16.99;nan;101903.53;5024395;28;20022;-73
2023/08/17 05:05:35;;;;;;;11.15;3.38;;;;;;;17.00;nan;101902.66;5022896;28;20068;-73
2023/08/17 05:08:01;;;;;;;5.93;3.28;;;;;;;17.02;nan;101905.22;5024420;28;20029;-73
2023/08/17 05:10:26;;;;;;;5.18;3.17;;;;;;;17.03;nan;101901.66;5015605;28;20076;-73
2023/08/17 05:12:51;;;;;;;6.30;3.00;;;;;;;17.02;nan;101898.16;5022929;28;20030;-73
2023/08/17 05:15:17;;;;;;;6.85;3.50;;;;;;;17.00;nan;101904.41;5023084;28;20040;-73
2023/08/17 05:17:42;;;;;;;4.88;2.95;;;;;;;16.95;nan;101891.38;5022687;28;20057;-73
2023/08/17 05:20:08;;;;;;;6.35;3.40;;;;;;;16.96;nan;101895.72;5020776;28;20083;-75
2023/08/17 05:22:33;;;;;;;9.07;3.25;;;;;;;16.95;nan;101888.75;5021808;28;20366;-75
2023/08/17 05:24:58;;;;;;;5.75;3.42;;;;;;;16.94;nan;101888.78;5020418;28;20033;-75
2023/08/17 05:27:24;;;;;;;5.60;3.22;;;;;;;17.01;nan;101898.22;5023934;28;20042;-75
2023/08/17 05:29:49;;;;;;;7.70;3.35;;;;;;;17.08;nan;101887.44;5018459;28;20106;-75
2023/08/17 05:32:14;;;;;;;8.30;3.35;;;;;;;17.12;nan;101882.06;5026178;28;20056;-76
2023/08/17 05:34:40;;;;;;;3.72;3.00;;;;;;;17.21;nan;101906.31;5021025;28;20486;-75
2023/08/17 05:37:05;;;;;;;7.03;3.53;;;;;;;17.29;nan;101887.59;5027242;28;20112;-75
2023/08/17 05:39:30;;;;;;;7.00;3.33;;;;;;;17.24;nan;101884.28;5014763;28;20022;-75
2023/08/17 05:41:56;;;;;;;7.30;3.50;;;;;;;17.32;nan;101896.25;5023721;28;20492;-75
2023/08/17 05:44:21;;;;;;;6.15;3.42;;;;;;;17.32;nan;101900.66;5024019;28;20473;-75
2023/08/17 05:46:47;;;;;;;8.43;3.42;;;;;;;17.22;nan;101892.22;5024320;28;20120;-75
2023/08/17 05:49:12;;;;;;;6.13;3.38;;;;;;;17.31;nan;101905.06;5015854;28;20034;-73
2023/08/17 05:51:38;;;;;;;6.88;3.80;;;;;;;17.27;nan;101897.34;5023659;28;20044;-73
2023/08/17 05:54:03;;;;;;;10.32;3.70;;;;;;;17.42;nan;101903.84;5018336;28;20108;-76
2023/08/17 05:56:29;;;;;;;8.05;3.92;;;;;;;17.47;nan;101896.66;5022772;28;20048;-75
2023/08/17 05:58:54;;;;;;;11.15;4.05;;;;;;;17.72;nan;101907.16;5020106;28;20041;-75
2023/08/17 06:01:20;;;;;;;5.32;3.90;;;;;;;17.77;nan;101899.97;5022791;28;20045;-75
2023/08/17 06:03:45;;;;;;;8.32;3.95;;;;;;;17.78;nan;101906.97;5021990;28;20021;-75
2023/08/17 06:06:11;;;;;;;8.43;3.85;;;;;;;17.75;nan;101907.03;5018271;28;20034;-75
2023/08/17 06:08:36;;;;;;;7.05;3.90;;;;;;;17.83;nan;101904.19;5021156;28;20036;-75
2023/08/17 06:11:01;;;;;;;6.95;4.53;;;;;;;17.84;nan;101905.88;5012377;28;20025;-75
2023/08/17 06:13:27;;;;;;;7.88;4.45;;;;;;;17.86;nan;101917.25;5017322;28;20026;-75
2023/08/17 06:15:52;;;;;;;6.38;3.65;;;;;;;17.85;nan;101926.06;5015692;28;20034;-75
2023/08/17 06:18:17;;;;;;;9.45;4.30;;;;;;;17.96;nan;101926.53;5017798;28;20057;-75
2023/08/17 06:20:43;;;;;;;5.40;4.07;;;;;;;18.00;nan;101928.16;5018866;28;20113;-75
2023/08/17 06:23:08;;;;;;;5.68;3.75;;;;;;;17.94;nan;101913.38;5019140;28;20034;-75
2023/08/17 06:25:34;;;;;;;5.90;3.80;;;;;;;17.91;nan;101920.56;5017892;28;20064;-76
2023/08/17 06:28:00;;;;;;;5.57;3.88;;;;;;;17.90;nan;101914.44;5021908;28;20100;-76
2023/08/17 06:30:25;;;;;;;7.70;4.60;;;;;;;17.94;nan;101917.81;5020066;28;20036;-75
2023/08/17 06:32:51;;;;;;;10.30;4.82;;;;;;;17.92;nan;101920.53;5018766;28;20022;-75
2023/08/17 06:35:17;;;;;;;6.75;4.40;;;;;;;17.82;nan;101919.16;5016417;28;20041;-75
2023/08/17 06:37:42;;;;;;;6.47;4.32;;;;;;;17.71;nan;101916.84;5017594;28;20021;-75
2023/08/17 06:40:09;;;;;;;8.45;4.18;;;;;;;17.73;nan;101927.34;5019809;28;20028;-75
2023/08/17 06:42:34;;;;;;;7.80;4.55;;;;;;;17.77;nan;101926.34;5022344;28;20025;-75
2023/08/17 06:44:59;;;;;;;9.05;4.75;;;;;;;17.87;nan;101919.81;5021609;28;20037;-75
2023/08/17 06:47:25;;;;;;;9.05;4.60;;;;;;;18.02;nan;101923.69;5011961;28;20438;-75
2023/08/17 06:49:50;;;;;;;8.00;4.82;;;;;;;18.14;nan;101922.34;5011640;28;20030;-76
2023/08/17 06:52:15;;;;;;;6.93;4.60;;;;;;;18.30;nan;101930.53;5019904;28;20025;-76
2023/08/17 06:54:41;;;;;;;7.22;4.60;;;;;;;18.32;nan;101924.28;5014423;28;20065;-76
2023/08/17 06:57:06;;;;;;;7.15;4.25;;;;;;;18.38;nan;101921.41;5020056;28;20080;-76
2023/08/17 06:59:33;;;;;;;9.98;4.70;;;;;;;18.45;nan;101927.31;5019890;28;20125;-76
2023/08/17 07:01:58;;;;;;;6.20;4.68;;;;;;;18.49;nan;101923.63;5025506;28;20076;-76
2023/08/17 07:04:24;;;;;;;10.38;4.90;;;;;;;18.48;nan;101892.88;5019603;28;20030;-76
2023/08/17 07:06:49;;;;;;;7.85;4.45;;;;;;;18.72;nan;101922.75;5013867;28;20029;-76
2023/08/17 07:09:15;;;;;;;7.47;4.57;;;;;;;18.75;nan;101927.91;5011663;28;20537;-76
2023/08/17 07:11:40;;;;;;;8.93;4.95;;;;;;;18.74;nan;101920.91;5023243;28;20112;-75
2023/08/17 07:14:06;;;;;;;4.68;3.92;;;;;;;18.68;nan;101921.13;5019053;28;20022;-75
2023/08/17 07:16:31;;;;;;;8.88;4.20;;;;;;;18.71;nan;101927.13;5020194;28;20033;-76
2023/08/17 07:18:57;;;;;;;7.63;4.68;;;;;;;18.81;nan;101922.38;5011514;28;20112;-76
2023/08/17 07:21:22;;;;;;;8.90;4.38;;;;;;;18.93;nan;101924.50;5021378;28;20116;-76
2023/08/17 07:23:48;;;;;;;7.70;4.68;;;;;;;18.94;nan;101922.72;5023588;28;20057;-76
2023/08/17 07:26:13;;;;;;;7.88;4.85;;;;;;;18.97;nan;101922.59;5020751;28;20593;-75
2023/08/17 07:28:38;;;;;;;8.07;4.75;;;;;;;18.93;nan;101921.88;5015630;28;20030;-76
2023/08/17 07:31:05;;;;;;;10.43;4.82;;;;;;;18.98;nan;101928.75;5014325;28;20088;-76
2023/08/17 07:33:31;;;;;;;7.13;4.50;;;;;;;18.91;nan;101922.84;5013442;28;20100;-76
2023/08/17 07:35:58;;;;;;;9.02;4.70;;;;;;;19.02;nan;101931.19;5013645;28;20555;-75
2023/08/17 07:38:23;;;;;;;7.10;4.10;;;;;;;19.14;nan;101919.25;5022034;28;20088;-75
2023/08/17 07:40:48;;;;;;;8.68;4.80;;;;;;;19.27;nan;101935.44;5016791;28;20029;-76
2023/08/17 07:43:14;;;;;;;6.90;4.32;;;;;;;19.28;nan;101927.44;5021341;28;20045;-76
2023/08/17 07:45:39;;;;;;;7.20;4.88;;;;;;;19.27;nan;101925.72;5027407;28;20049;-76
2023/08/17 07:48:04;;;;;;;7.50;5.13;;;;;;;19.34;nan;101929.81;5027521;28;20091;-76
2023/08/17 07:50:30;;;;;;;6.10;4.80;;;;;;;19.48;nan;101931.00;5022432;28;20056;-75
2023/08/17 07:52:55;;;;;;;8.98;4.43;;;;;;;19.56;nan;101913.03;5028013;28;20018;-75
2023/08/17 07:55:21;;;;;;;8.45;4.53;;;;;;;19.62;nan;101929.50;5019551;28;20469;-76
2023/08/17 07:57:46;;;;;;;8.20;4.80;;;;;;;19.57;nan;101925.31;5025436;28;20037;-76
2023/08/17 08:00:12;;;;;;;10.43;4.50;;;;;;;19.59;nan;101934.91;5026114;28;20104;-75
2023/08/17 08:02:37;;;;;;;6.57;4.10;;;;;;;19.54;nan;101931.59;5024627;28;20026;-75
2023/08/17 08:05:02;;;;;;;8.88;4.47;;;;;;;19.51;nan;101938.81;5026306;28;20029;-76
2023/08/17 08:07:27;;;;;;;9.05;4.85;;;;;;;19.66;nan;101932.91;5024782;28;20037;-75
2023/08/17 08:09:53;;;;;;;10.57;4.72;;;;;;;19.74;nan;101936.03;5024837;28;20036;-76
2023/08/17 08:12:18;;;;;;;7.00;4.55;;;;;;;19.84;nan;101941.78;5026861;28;20393;-76
2023/08/17 08:14:43;;;;;;;8.25;4.50;;;;;;;19.97;nan;101932.34;5023281;28;20079;-76
2023/08/17 08:17:09;;;;;;;8.07;4.15;;;;;;;20.07;nan;101933.66;5029484;28;20385;-76
2023/08/17 08:19:34;;;;;;;8.70;4.90;;;;;;;20.05;nan;101921.44;5023224;28;20359;-76
2023/08/17 08:22:01;;;;;;;7.10;4.53;;;;;;;20.09;nan;101920.38;5031130;28;20033;-76
2023/08/17 08:24:31;;;;;;;8.07;4.68;;;;;;;20.06;nan;101920.50;5024335;28;20136;-76
2023/08/17 08:26:56;;;;;;;10.40;5.03;;;;;;;20.13;nan;101927.22;5029788;28;20103;-76
2023/08/17 08:29:21;;;;;;;12.27;4.88;;;;;;;20.08;nan;101930.09;5022773;28;20501;-76
2023/08/17 08:31:47;;;;;;;10.50;5.15;;;;;;;20.15;nan;101940.41;5027362;28;20576;-76
2023/08/17 08:34:12;;;;;;;11.25;5.18;;;;;;;20.19;nan;101932.25;5023925;28;20107;-76
2023/08/17 08:36:37;;;;;;;8.45;4.90;;;;;;;20.32;nan;101936.03;5026045;28;20108;-76
2023/08/17 08:39:03;;;;;;;8.10;4.90;;;;;;;20.17;nan;101934.09;5025625;28;20033;-76
2023/08/17 08:41:29;;;;;;;11.07;4.68;;;;;;;20.01;nan;101931.31;5024044;28;20032;-76
2023/08/17 08:43:55;;;;;;;7.20;4.90;;;;;;;19.91;nan;101940.56;5026247;28;20083;-76
2023/08/17 08:46:21;;;;;;;8.75;5.50;;;;;;;19.69;nan;101931.91;5020864;28;21000;-76
2023/08/17 08:48:51;;;;;;;7.82;5.25;;;;;;;19.52;nan;101943.16;5018530;28;20430;-76
2023/08/17 08:51:19;;;;;;;7.97;4.70;;;;;;;19.39;nan;101932.25;5011860;28;20026;-75
2023/08/17 08:53:45;;;;;;;8.98;5.40;;;;;;;19.36;nan;101930.63;5022002;28;20105;-76
2023/08/17 08:56:14;;;;;;;8.48;5.60;;;;;;;19.33;nan;101922.81;5020897;28;20062;-77
2023/08/17 08:58:41;;;;;;;11.13;5.55;;;;;;;19.38;nan;101925.25;5018898;28;20080;-74
2023/08/17 09:01:10;;;;;;;10.07;5.43;;;;;;;19.35;nan;101928.03;5020868;28;20412;-76
2023/08/17 09:03:36;;;;;;;8.25;5.38;;;;;;;19.29;nan;101923.91;5025412;28;20032;-76
2023/08/17 09:06:03;;;;;;;7.90;5.50;;;;;;;19.28;nan;101922.16;5019640;28;20026;-75
2023/08/17 09:08:29;;;;;;;12.05;5.38;;;;;;;19.37;nan;101918.25;5024405;28;20026;-75
2023/08/17 09:10:55;;;;;;;7.38;5.43;;;;;;;19.32;nan;101910.50;5020170;28;20038;-76
2023/08/17 09:13:20;;;;;;;10.27;5.30;;;;;;;19.34;nan;101884.88;5022224;28;20037;-76
2023/08/17 09:15:46;;;;;;;12.93;6.47;;;;;;;19.51;nan;101907.06;5022996;28;20057;-76
2023/08/17 09:18:11;;;;;;;8.95;6.10;;;;;;;19.42;nan;101918.91;5013434;28;20116;-76
2023/08/17 09:20:45;;;;;;;9.45;5.70;;;;;;;19.37;nan;101916.47;5024385;28;20025;-76
2023/08/17 09:23:15;;;;;;;13.90;6.68;;;;;;;19.30;nan;101925.59;5023886;28;20121;-75
2023/08/17 09:25:42;;;;;;;14.43;7.18;;;;;;;19.23;nan;101928.56;5025368;28;20103;-75
2023/08/17 09:28:14;;;;;;;10.88;6.65;;;;;;;19.06;nan;101906.34;5020657;28;20018;-75
2023/08/17 09:31:00;;;;;;;11.35;6.55;;;;;;;19.13;nan;101922.81;5025338;28;20037;-75
2023/08/17 09:33:27;;;;;;;12.20;7.00;;;;;;;19.05;nan;101919.63;5019936;28;20393;-75
2023/08/17 09:35:54;;;;;;;15.02;7.78;;;;;;;18.97;nan;101908.53;5024191;28;20115;-75
2023/08/17 09:38:20;;;;;;;14.80;7.38;;;;;;;19.00;nan;101918.94;5021330;28;20033;-75
2023/08/17 09:40:46;;;;;;;16.90;8.18;;;;;;;19.08;nan;101916.84;5025120;28;20025;-75
2023/08/17 09:43:12;;;;;;;18.23;7.80;;;;;;;19.17;nan;101913.84;5022350;28;20030;-75
2023/08/17 09:45:38;;;;;;;15.73;7.93;;;;;;;19.36;nan;101913.91;5024503;28;20072;-75
2023/08/17 09:48:04;;;;;;;11.57;7.63;;;;;;;19.42;nan;101926.84;5025105;28;20462;-75
2023/08/17 09:50:29;;;;;;;16.77;7.88;;;;;;;19.41;nan;101917.19;5021295;28;20116;-75
2023/08/17 09:52:55;;;;;;;14.13;7.75;;;;;;;19.46;nan;101919.66;5027493;28;20030;-74
2023/08/17 09:55:23;;;;;;;12.48;8.07;;;;;;;19.39;nan;101904.06;5020115;28;20496;-75
2023/08/17 09:57:52;;;;;;;12.85;7.90;;;;;;;19.43;nan;101904.78;5023632;28;20030;-75
2023/08/17 10:00:20;;;;;;;14.77;8.32;;;;;;;19.47;nan;101902.88;5025639;28;20049;-75
2023/08/17 10:02:49;;;;;;;12.75;8.13;;;;;;;19.52;nan;101899.09;5022445;28;20033;-75
2023/08/17 10:05:18;;;;;;;13.65;7.85;;;;;;;19.54;nan;101901.66;5024089;28;20076;-75
2023/08/17 10:07:48;;;;;;;15.10;7.78;;;;;;;19.49;nan;101903.63;5019758;28;20056;-75
2023/08/17 10:10:19;;;;;;;13.27;8.10;;;;;;;19.59;nan;101902.31;5023075;28;20056;-75
2023/08/17 10:12:48;;;;;;;15.85;8.85;;;;;;;19.63;nan;101888.03;5021915;28;20026;-75
2023/08/17 10:15:17;;;;;;;16.88;8.55;;;;;;;19.69;nan;101894.88;5023716;28;20116;-75
2023/08/17 10:17:48;;;;;;;16.10;9.30;;;;;;;19.70;nan;101892.13;5023379;28;20540;-75
2023/08/17 10:20:14;;;;;;;17.38;9.27;;;;;;;19.67;nan;101883.50;5007531;28;20029;-74
2023/08/17 10:22:51;;;;;;;12.20;8.63;;;;;;;19.70;nan;101886.00;5011179;28;20071;-75
2023/08/17 10:25:18;;;;;;;14.60;8.57;;;;;;;19.70;nan;101888.66;5018942;28;20139;-74
2023/08/17 10:27:45;;;;;;;15.90;9.82;;;;;;;19.66;nan;101887.06;5022010;28;20072;-75
2023/08/17 10:30:11;;;;;;;17.05;9.57;;;;;;;19.50;nan;101881.56;5022614;28;20029;-75
2023/08/17 10:32:37;;;;;;;15.82;9.27;;;;;;;19.49;nan;101888.66;5022236;28;20033;-75
2023/08/17 10:35:04;;;;;;;15.52;9.25;;;;;;;19.52;nan;101877.94;5023494;28;20044;-75
2023/08/17 10:37:30;;;;;;;14.38;9.27;;;;;;;19.65;nan;101878.25;5019535;28;20040;-75
2023/08/17 10:39:56;;;;;;;14.90;9.25;;;;;;;19.78;nan;101892.66;5023978;28;20053;-75
2023/08/17 10:42:32;;;;;;;15.63;9.63;;;;;;;19.74;nan;101884.91;5018711;28;20025;-75
2023/08/17 10:44:57;;;;;;;23.20;9.13;;;;;;;19.73;nan;101884.06;5015795;28;20026;-75
2023/08/17 10:47:27;;;;;;;17.40;10.10;;;;;;;19.82;nan;101891.59;5020539;28;20527;-75
2023/08/17 10:49:57;;;;;;;14.93;9.27;;;;;;;19.87;nan;101881.63;5020922;28;20025;-75
2023/08/17 10:52:27;;;;;;;15.23;9.18;;;;;;;19.88;nan;101887.78;5021984;28;20026;-74
2023/08/17 10:54:54;;;;;;;16.77;9.52;;;;;;;19.97;nan;101884.72;5028099;28;20026;-75
2023/08/17 10:57:34;;;;;;;14.68;8.95;;;;;;;20.10;nan;101874.44;5011815;28;20030;-75
2023/08/17 11:00:26;;;;;;;11.48;8.10;;;;;;;20.41;nan;101880.94;5008595;28;20025;-75
2023/08/17 11:02:59;;;;;;;14.48;9.07;;;;;;;20.56;nan;101861.66;5022401;28;20034;-75
2023/08/17 11:05:44;;;;;;;;;;;;;;;21.00;nan;101877.13;5019410;28;20037;-75
2023/08/17 11:08:32;;;;;;;12.05;9.48;;;;;;;21.13;nan;101878.22;5011983;28;20261;-75
2023/08/17 11:11:05;;;;;;;12.43;9.18;;;;;;;21.11;nan;101879.22;5019133;28;20059;-74
2023/08/17 11:13:33;;;;;;;13.60;8.38;;;;;;;21.23;nan;101879.47;5015976;28;20037;-75
2023/08/17 11:15:59;;;;;;;18.38;10.75;;;;;;;21.10;nan;101870.44;5017550;28;20497;-75
2023/08/17 11:18:25;;;;;;;13.68;9.65;;;;;;;21.09;nan;101883.75;5025025;28;20076;-75
2023/08/17 11:20:51;;;;;;;17.08;9.40;;;;;;;21.00;nan;101879.78;5020409;28;20060;-75
2023/08/17 11:23:17;;;;;;;16.52;9.80;;;;;;;20.96;nan;101872.91;5009721;28;20025;-75
2023/08/17 11:25:42;;;;;;;15.32;10.43;;;;;;;20.92;nan;101893.41;5022242;28;20034;-75
2023/08/17 11:28:09;;;;;;;15.52;10.57;;;;;;;20.78;nan;101887.94;5020200;28;20108;-75
2023/08/17 11:30:37;;;;;;;16.90;10.65;;;;;;;20.60;nan;101895.03;5023328;28;20124;-75
2023/08/17 11:33:02;;;;;;;13.85;9.70;;;;;;;20.49;nan;101895.50;5019300;28;20101;-75
2023/08/17 11:35:28;;;;;;;15.65;9.70;;;;;;;20.54;nan;101897.97;5021608;28;20485;-75